メインページ
METAR-TAF:

METAR-TAF

空港 :

ウラジオストク, ロシア

ウラジオストク国際空港

緯度: 43-07N, 経度: 131-56E, 海抜: 184m

現時点の気象観測

当レポートは16分前の23:30(UTC)に作成
変向風 2kt
気温 -17°C
湿度 65%
気圧 1024 hPa
視程10km以上

METAR: UHWW 182330Z VRB01MPS 9999 NSC M17/M22 Q1024 R25L/0///70 NOSIG RMK QFE766

時間: 09:46 (23:46 UTC)

予報

当レポートは51分前の22:55(UTC)に作成
予報は19日の 00時(UTC)から 19日の 24時(UTC)まで有効
北/北西の風 6kt
視程10km以上
高度3000ftの雲は散在している
19日の 00時(UTC)から 19日の 02時(UTC)まで徐々に
視程: 4500m
19日の 12時(UTC)から 19日の 14時(UTC)まで徐々に
変向風 2kt
視程: 5000m
煙霧

TAF: UHWW 182255Z 1900/1924 34003MPS 9999 SCT030 BECMG 1900/1902 4500 FU BECMG 1912/1914 VRB01MPS 5000 HZ

4,000以上の空港の気象観測と天気予報(METAR報とTAF報)

利用可能な観測所は地図上に黄色い丸と赤い丸で示す。

丸の上にカーソルを重ねると観測所名を参照できる。

次にクリックすると気象観測と天気予報を参照できる。

マップの切り替え:黒色「×」印の緑ボタンをクリックして拡大、「-」印の緑ボタンをクリックして縮小、緑色の三角印をクリックして隣りの地図に切り替え


METAR-TAF: